sensor_id;sensor_type;location;lat;lon;timestamp;pressure;altitude;pressure_sealevel;temperature;humidity
10806;BME280;5455;53.224;6.000;2023-08-06T00:02:26;100620.25;;;14.83;100.00
10806;BME280;5455;53.224;6.000;2023-08-06T00:04:53;100625.44;;;14.81;100.00
10806;BME280;5455;53.224;6.000;2023-08-06T00:07:20;100615.50;;;14.87;100.00
10806;BME280;5455;53.224;6.000;2023-08-06T00:09:47;100611.16;;;14.86;100.00
10806;BME280;5455;53.224;6.000;2023-08-06T00:12:14;100609.56;;;14.85;100.00
10806;BME280;5455;53.224;6.000;2023-08-06T00:14:41;100608.00;;;14.84;100.00
10806;BME280;5455;53.224;6.000;2023-08-06T00:17:09;100611.16;;;14.86;100.00
10806;BME280;5455;53.224;6.000;2023-08-06T00:19:36;100611.16;;;14.86;100.00
10806;BME280;5455;53.224;6.000;2023-08-06T00:22:03;100607.56;;;14.85;100.00
10806;BME280;5455;53.224;6.000;2023-08-06T00:24:30;100600.06;;;14.86;100.00
10806;BME280;5455;53.224;6.000;2023-08-06T00:26:57;100606.41;;;14.86;100.00
10806;BME280;5455;53.224;6.000;2023-08-06T00:29:24;100604.81;;;14.85;100.00
10806;BME280;5455;53.224;6.000;2023-08-06T00:31:52;100596.88;;;14.91;100.00
10806;BME280;5455;53.224;6.000;2023-08-06T00:34:19;100595.28;;;14.94;100.00
10806;BME280;5455;53.224;6.000;2023-08-06T00:36:46;100602.84;;;14.89;100.00
10806;BME280;5455;53.224;6.000;2023-08-06T00:39:13;100606.00;;;14.88;100.00
10806;BME280;5455;53.224;6.000;2023-08-06T00:41:40;100605.59;;;14.93;100.00
10806;BME280;5455;53.224;6.000;2023-08-06T00:44:07;100602.44;;;14.95;100.00
10806;BME280;5455;53.224;6.000;2023-08-06T00:46:34;100609.97;;;14.98;100.00
10806;BME280;5455;53.224;6.000;2023-08-06T00:49:01;100615.13;;;14.99;100.00
10806;BME280;5455;53.224;6.000;2023-08-06T00:51:28;100614.34;;;14.95;100.00
10806;BME280;5455;53.224;6.000;2023-08-06T00:53:55;100611.94;;;14.97;100.00
10806;BME280;5455;53.224;6.000;2023-08-06T00:56:24;100602.81;;;14.93;100.00
10806;BME280;5455;53.224;6.000;2023-08-06T00:58:51;100607.59;;;14.89;100.00
10806;BME280;5455;53.224;6.000;2023-08-06T01:01:19;100599.25;;;14.89;100.00
10806;BME280;5455;53.224;6.000;2023-08-06T01:03:46;100610.34;;;14.85;100.00
10806;BME280;5455;53.224;6.000;2023-08-06T01:06:14;100609.16;;;14.83;100.00
10806;BME280;5455;53.224;6.000;2023-08-06T01:08:55;100605.59;;;14.86;100.00
10806;BME280;5455;53.224;6.000;2023-08-06T01:14:08;100607.19;;;14.83;100.00
10806;BME280;5455;53.224;6.000;2023-08-06T01:16:40;100605.19;;;14.91;100.00
10806;BME280;5455;53.224;6.000;2023-08-06T01:19:16;100615.09;;;14.85;100.00
10806;BME280;5455;53.224;6.000;2023-08-06T01:21:43;100610.75;;;14.84;100.00
10806;BME280;5455;53.224;6.000;2023-08-06T01:24:11;100605.97;;;14.84;100.00
10806;BME280;5455;53.224;6.000;2023-08-06T01:27:32;100608.38;;;14.86;100.00
10806;BME280;5455;53.224;6.000;2023-08-06T01:30:08;100609.16;;;14.90;100.00
10806;BME280;5455;53.224;6.000;2023-08-06T01:32:43;100612.34;;;14.92;100.00
10806;BME280;5455;53.224;6.000;2023-08-06T01:35:12;100609.97;;;14.98;100.00
10806;BME280;5455;53.224;6.000;2023-08-06T01:37:41;100606.41;;;14.97;100.00
10806;BME280;5455;53.224;6.000;2023-08-06T01:40:12;100602.81;;;14.93;100.00
10806;BME280;5455;53.224;6.000;2023-08-06T01:42:39;100604.03;;;14.92;100.00
10806;BME280;5455;53.224;6.000;2023-08-06T01:45:08;100604.81;;;14.89;100.00
10806;BME280;5455;53.224;6.000;2023-08-06T01:47:35;100594.09;;;14.84;100.00
10806;BME280;5455;53.224;6.000;2023-08-06T01:50:03;100590.50;;;14.76;100.00
10806;BME280;5455;53.224;6.000;2023-08-06T01:52:30;100592.91;;;14.74;100.00
10806;BME280;5455;53.224;6.000;2023-08-06T01:54:57;100596.84;;;14.70;100.00
10806;BME280;5455;53.224;6.000;2023-08-06T01:57:24;100593.66;;;14.68;100.00
10806;BME280;5455;53.224;6.000;2023-08-06T01:59:51;100601.59;;;14.66;100.00
10806;BME280;5455;53.224;6.000;2023-08-06T02:02:18;100586.50;;;14.63;100.00
10806;BME280;5455;53.224;6.000;2023-08-06T02:04:46;100590.47;;;14.69;100.00
10806;BME280;5455;53.224;6.000;2023-08-06T02:07:13;100592.09;;;14.74;100.00
10806;BME280;5455;53.224;6.000;2023-08-06T02:09:41;100586.16;;;14.82;100.00
10806;BME280;5455;53.224;6.000;2023-08-06T02:12:08;100587.34;;;14.85;100.00
10806;BME280;5455;53.224;6.000;2023-08-06T02:14:35;100589.72;;;14.90;100.00
10806;BME280;5455;53.224;6.000;2023-08-06T02:17:02;100580.22;;;14.84;100.00
10806;BME280;5455;53.224;6.000;2023-08-06T02:19:29;100578.63;;;14.83;100.00
10806;BME280;5455;53.224;6.000;2023-08-06T02:21:56;100580.16;;;14.66;100.00
10806;BME280;5455;53.224;6.000;2023-08-06T02:24:23;100566.31;;;14.77;100.00
10806;BME280;5455;53.224;6.000;2023-08-06T02:26:50;100579.41;;;14.90;100.00
10806;BME280;5455;53.224;6.000;2023-08-06T02:29:18;100574.66;;;14.87;100.00
10806;BME280;5455;53.224;6.000;2023-08-06T02:31:45;100567.53;;;14.94;100.00
10806;BME280;5455;53.224;6.000;2023-08-06T02:34:12;100570.28;;;14.90;100.00
10806;BME280;5455;53.224;6.000;2023-08-06T02:36:39;100564.75;;;14.90;100.00
10806;BME280;5455;53.224;6.000;2023-08-06T02:39:06;100560.38;;;14.85;100.00
10806;BME280;5455;53.224;6.000;2023-08-06T02:41:34;100565.94;;;14.82;100.00
10806;BME280;5455;53.224;6.000;2023-08-06T02:44:01;100569.53;;;14.89;100.00
10806;BME280;5455;53.224;6.000;2023-08-06T02:46:28;100565.13;;;14.85;100.00
10806;BME280;5455;53.224;6.000;2023-08-06T02:48:55;100561.59;;;14.81;100.00
10806;BME280;5455;53.224;6.000;2023-08-06T02:51:22;100556.41;;;14.76;100.00
10806;BME280;5455;53.224;6.000;2023-08-06T02:53:49;100556.38;;;14.58;100.00
10806;BME280;5455;53.224;6.000;2023-08-06T02:56:18;100554.41;;;14.69;100.00
10806;BME280;5455;53.224;6.000;2023-08-06T02:58:54;100558.78;;;14.70;100.00
10806;BME280;5455;53.224;6.000;2023-08-06T03:01:31;100550.44;;;14.60;100.00
10806;BME280;5455;53.224;6.000;2023-08-06T03:04:05;100552.41;;;14.56;100.00
10806;BME280;5455;53.224;6.000;2023-08-06T03:06:37;100555.19;;;14.56;100.00
10806;BME280;5455;53.224;6.000;2023-08-06T03:09:04;100549.22;;;14.57;100.00
10806;BME280;5455;53.224;6.000;2023-08-06T03:11:31;100551.63;;;14.59;100.00
10806;BME280;5455;53.224;6.000;2023-08-06T03:14:04;100543.69;;;14.61;100.00
10806;BME280;5455;53.224;6.000;2023-08-06T03:16:31;100543.31;;;14.62;100.00
10806;BME280;5455;53.224;6.000;2023-08-06T03:18:59;100541.69;;;14.58;100.00
10806;BME280;5455;53.224;6.000;2023-08-06T03:21:26;100550.03;;;14.61;100.00
10806;BME280;5455;53.224;6.000;2023-08-06T03:23:53;100538.13;;;14.61;100.00
10806;BME280;5455;53.224;6.000;2023-08-06T03:26:23;100536.94;;;14.58;100.00
10806;BME280;5455;53.224;6.000;2023-08-06T03:28:51;100539.34;;;14.60;100.00
10806;BME280;5455;53.224;6.000;2023-08-06T03:31:18;100532.19;;;14.59;100.00
10806;BME280;5455;53.224;6.000;2023-08-06T03:33:46;100538.13;;;14.57;100.00
10806;BME280;5455;53.224;6.000;2023-08-06T03:36:16;100534.56;;;14.50;100.00
10806;BME280;5455;53.224;6.000;2023-08-06T03:38:43;100528.59;;;14.44;100.00
10806;BME280;5455;53.224;6.000;2023-08-06T03:41:12;100530.19;;;14.42;100.00
10806;BME280;5455;53.224;6.000;2023-08-06T03:43:39;100534.53;;;14.43;100.00
10806;BME280;5455;53.224;6.000;2023-08-06T03:46:12;100543.69;;;14.50;100.00
10806;BME280;5455;53.224;6.000;2023-08-06T03:48:39;100533.34;;;14.44;100.00
10806;BME280;5455;53.224;6.000;2023-08-06T03:51:06;100547.63;;;14.46;100.00
10806;BME280;5455;53.224;6.000;2023-08-06T03:53:34;100533.75;;;14.49;100.00
10806;BME280;5455;53.224;6.000;2023-08-06T03:56:02;100538.91;;;14.47;100.00
10806;BME280;5455;53.224;6.000;2023-08-06T03:58:30;100542.06;;;14.42;100.00
10806;BME280;5455;53.224;6.000;2023-08-06T04:01:01;100537.31;;;14.36;100.00
10806;BME280;5455;53.224;6.000;2023-08-06T04:03:42;100537.69;;;14.34;100.00
10806;BME280;5455;53.224;6.000;2023-08-06T04:06:09;100533.75;;;14.39;100.00
10806;BME280;5455;53.224;6.000;2023-08-06T04:08:36;100536.91;;;14.41;100.00
10806;BME280;5455;53.224;6.000;2023-08-06T04:11:03;100537.31;;;14.43;100.00
10806;BME280;5455;53.224;6.000;2023-08-06T04:13:30;100536.13;;;14.40;100.00
10806;BME280;5455;53.224;6.000;2023-08-06T04:16:03;100538.03;;;14.25;100.00
10806;BME280;5455;53.224;6.000;2023-08-06T04:18:32;100536.06;;;14.26;100.00
10806;BME280;5455;53.224;6.000;2023-08-06T04:21:01;100542.00;;;14.31;100.00
10806;BME280;5455;53.224;6.000;2023-08-06T04:23:28;100544.44;;;14.44;100.00
10806;BME280;5455;53.224;6.000;2023-08-06T04:26:00;100547.22;;;14.44;100.00
10806;BME280;5455;53.224;6.000;2023-08-06T04:28:31;100538.13;;;14.50;100.00
10806;BME280;5455;53.224;6.000;2023-08-06T04:30:59;100540.91;;;14.47;100.00
10806;BME280;5455;53.224;6.000;2023-08-06T04:33:27;100542.88;;;14.50;100.00
10806;BME280;5455;53.224;6.000;2023-08-06T04:35:56;100538.13;;;14.57;100.00
10806;BME280;5455;53.224;6.000;2023-08-06T04:38:25;100550.06;;;14.65;100.00
10806;BME280;5455;53.224;6.000;2023-08-06T04:40:54;100546.09;;;14.62;100.00
10806;BME280;5455;53.224;6.000;2023-08-06T04:43:22;100548.47;;;14.57;100.00
10806;BME280;5455;53.224;6.000;2023-08-06T04:45:50;100552.00;;;14.57;100.00
10806;BME280;5455;53.224;6.000;2023-08-06T04:48:18;100550.84;;;14.65;100.00
10806;BME280;5455;53.224;6.000;2023-08-06T04:50:45;100550.06;;;14.65;100.00
10806;BME280;5455;53.224;6.000;2023-08-06T04:53:13;100552.44;;;14.63;100.00
10806;BME280;5455;53.224;6.000;2023-08-06T04:55:40;100556.00;;;14.67;100.00
10806;BME280;5455;53.224;6.000;2023-08-06T04:58:09;100552.06;;;14.71;100.00
10806;BME280;5455;53.224;6.000;2023-08-06T05:00:36;100555.22;;;14.73;100.00
10806;BME280;5455;53.224;6.000;2023-08-06T05:03:03;100556.81;;;14.78;100.00
10806;BME280;5455;53.224;6.000;2023-08-06T05:05:30;100552.88;;;14.89;100.00
10806;BME280;5455;53.224;6.000;2023-08-06T05:07:57;100553.25;;;14.92;100.00
10806;BME280;5455;53.224;6.000;2023-08-06T05:10:25;100564.38;;;15.09;100.00
10806;BME280;5455;53.224;6.000;2023-08-06T05:12:53;100560.81;;;15.19;100.00
10806;BME280;5455;53.224;6.000;2023-08-06T05:15:22;100566.38;;;15.23;100.00
10806;BME280;5455;53.224;6.000;2023-08-06T05:17:52;100557.63;;;15.14;100.00
10806;BME280;5455;53.224;6.000;2023-08-06T05:20:20;100558.03;;;15.16;100.00
10806;BME280;5455;53.224;6.000;2023-08-06T05:22:47;100565.94;;;15.21;100.00
10806;BME280;5455;53.224;6.000;2023-08-06T05:25:14;100560.41;;;15.24;100.00
10806;BME280;5455;53.224;6.000;2023-08-06T05:27:41;100567.94;;;15.20;100.00
10806;BME280;5455;53.224;6.000;2023-08-06T05:30:08;100568.34;;;15.22;100.00
10806;BME280;5455;53.224;6.000;2023-08-06T05:32:36;100571.53;;;15.35;100.00
10806;BME280;5455;53.224;6.000;2023-08-06T05:35:03;100578.66;;;15.39;100.00
10806;BME280;5455;53.224;6.000;2023-08-06T05:37:30;100581.84;;;15.34;100.00
10806;BME280;5455;53.224;6.000;2023-08-06T05:39:57;100580.63;;;15.39;100.00
10806;BME280;5455;53.224;6.000;2023-08-06T05:42:24;100583.41;;;15.53;100.00
10806;BME280;5455;53.224;6.000;2023-08-06T05:44:51;100579.84;;;15.56;100.00
10806;BME280;5455;53.224;6.000;2023-08-06T05:47:18;100579.84;;;15.63;100.00
10806;BME280;5455;53.224;6.000;2023-08-06T05:49:46;100590.16;;;15.70;100.00
10806;BME280;5455;53.224;6.000;2023-08-06T05:52:13;100588.94;;;15.78;100.00
10806;BME280;5455;53.224;6.000;2023-08-06T05:54:40;100590.53;;;15.86;100.00
10806;BME280;5455;53.224;6.000;2023-08-06T05:57:07;100586.91;;;15.96;100.00
10806;BME280;5455;53.224;6.000;2023-08-06T05:59:34;100590.47;;;16.00;100.00
10806;BME280;5455;53.224;6.000;2023-08-06T06:02:01;100586.47;;;16.05;100.00
10806;BME280;5455;53.224;6.000;2023-08-06T06:04:28;100580.16;;;16.01;100.00
10806;BME280;5455;53.224;6.000;2023-08-06T06:06:56;100584.91;;;16.07;100.00
10806;BME280;5455;53.224;6.000;2023-08-06T06:09:23;100591.22;;;16.15;100.00
10806;BME280;5455;53.224;6.000;2023-08-06T06:11:50;100585.59;;;16.25;100.00
10806;BME280;5455;53.224;6.000;2023-08-06T06:14:18;100587.63;;;16.21;100.00
10806;BME280;5455;53.224;6.000;2023-08-06T06:16:46;100592.81;;;16.16;100.00
10806;BME280;5455;53.224;6.000;2023-08-06T06:19:13;100595.19;;;16.17;100.00
10806;BME280;5455;53.224;6.000;2023-08-06T06:21:40;100598.31;;;16.33;100.00
10806;BME280;5455;53.224;6.000;2023-08-06T06:24:06;100598.31;;;16.30;100.00
10806;BME280;5455;53.224;6.000;2023-08-06T06:26:34;100593.91;;;16.36;100.00
10806;BME280;5455;53.224;6.000;2023-08-06T06:29:01;100602.53;;;16.70;100.00
10806;BME280;5455;53.224;6.000;2023-08-06T06:31:29;100595.72;;;16.78;100.00
10806;BME280;5455;53.224;6.000;2023-08-06T06:33:56;100598.94;;;16.69;100.00
10806;BME280;5455;53.224;6.000;2023-08-06T06:36:23;100603.75;;;16.62;100.00
10806;BME280;5455;53.224;6.000;2023-08-06T06:38:50;100594.84;;;16.88;100.00
10806;BME280;5455;53.224;6.000;2023-08-06T06:41:17;100605.53;;;16.96;100.00
10806;BME280;5455;53.224;6.000;2023-08-06T06:43:44;100603.81;;;17.13;100.00
10806;BME280;5455;53.224;6.000;2023-08-06T06:46:11;100604.13;;;17.26;100.00
10806;BME280;5455;53.224;6.000;2023-08-06T06:48:38;100607.53;;;17.47;100.00
10806;BME280;5455;53.224;6.000;2023-08-06T06:51:05;100602.97;;;17.68;100.00
10806;BME280;5455;53.224;6.000;2023-08-06T06:53:32;100606.91;;;17.74;100.00
10806;BME280;5455;53.224;6.000;2023-08-06T06:56:04;100606.75;;;17.88;100.00
10806;BME280;5455;53.224;6.000;2023-08-06T06:58:32;100609.81;;;18.00;100.00
10806;BME280;5455;53.224;6.000;2023-08-06T07:00:59;100606.41;;;18.20;100.00
10806;BME280;5455;53.224;6.000;2023-08-06T07:03:26;100608.44;;;18.15;100.00
10806;BME280;5455;53.224;6.000;2023-08-06T07:05:57;100603.38;;;18.07;100.00
10806;BME280;5455;53.224;6.000;2023-08-06T07:08:25;100602.75;;;17.89;100.00
10806;BME280;5455;53.224;6.000;2023-08-06T07:11:03;100609.94;;;17.90;100.00
10806;BME280;5455;53.224;6.000;2023-08-06T07:13:30;100611.59;;;17.84;100.00
10806;BME280;5455;53.224;6.000;2023-08-06T07:15:57;100611.44;;;17.98;100.00
10806;BME280;5455;53.224;6.000;2023-08-06T07:18:24;100608.06;;;18.13;100.00
10806;BME280;5455;53.224;6.000;2023-08-06T07:20:53;100612.41;;;18.18;100.00
10806;BME280;5455;53.224;6.000;2023-08-06T07:23:22;100624.69;;;18.24;100.00
10806;BME280;5455;53.224;6.000;2023-08-06T07:25:50;100627.13;;;18.22;100.00
10806;BME280;5455;53.224;6.000;2023-08-06T07:28:17;100622.38;;;18.19;100.00
10806;BME280;5455;53.224;6.000;2023-08-06T07:30:45;100620.50;;;18.39;100.00
10806;BME280;5455;53.224;6.000;2023-08-06T07:33:12;100630.13;;;18.38;100.00
10806;BME280;5455;53.224;6.000;2023-08-06T07:35:40;100634.75;;;18.48;100.00
10806;BME280;5455;53.224;6.000;2023-08-06T07:38:07;100636.34;;;18.53;100.00
10806;BME280;5455;53.224;6.000;2023-08-06T07:40:35;100636.63;;;18.62;100.00
10806;BME280;5455;53.224;6.000;2023-08-06T07:43:03;100634.25;;;18.60;100.00
10806;BME280;5455;53.224;6.000;2023-08-06T07:45:37;100628.44;;;18.75;100.00
10806;BME280;5455;53.224;6.000;2023-08-06T07:48:04;100629.38;;;18.68;100.00
10806;BME280;5455;53.224;6.000;2023-08-06T07:50:31;100625.19;;;18.53;100.00
10806;BME280;5455;53.224;6.000;2023-08-06T07:52:59;100633.03;;;18.61;100.00
10806;BME280;5455;53.224;6.000;2023-08-06T07:55:26;100630.56;;;18.67;100.00
10806;BME280;5455;53.224;6.000;2023-08-06T07:57:53;100623.38;;;18.66;100.00
10806;BME280;5455;53.224;6.000;2023-08-06T08:00:20;100624.06;;;18.43;100.00
10806;BME280;5455;53.224;6.000;2023-08-06T08:02:48;100636.16;;;18.33;100.00
10806;BME280;5455;53.224;6.000;2023-08-06T08:05:15;100634.19;;;18.30;100.00
10806;BME280;5455;53.224;6.000;2023-08-06T08:07:42;100624.88;;;18.44;100.00
10806;BME280;5455;53.224;6.000;2023-08-06T08:10:11;100625.50;;;18.58;100.00
10806;BME280;5455;53.224;6.000;2023-08-06T08:12:38;100632.56;;;18.66;100.00
10806;BME280;5455;53.224;6.000;2023-08-06T08:15:05;100630.16;;;18.68;100.00
10806;BME280;5455;53.224;6.000;2023-08-06T08:17:33;100634.91;;;18.72;100.00
10806;BME280;5455;53.224;6.000;2023-08-06T08:20:01;100636.47;;;18.73;100.00
10806;BME280;5455;53.224;6.000;2023-08-06T08:22:29;100629.38;;;18.95;100.00
10806;BME280;5455;53.224;6.000;2023-08-06T08:24:56;100634.94;;;18.98;100.00
10806;BME280;5455;53.224;6.000;2023-08-06T08:27:23;100640.94;;;18.97;100.00
10806;BME280;5455;53.224;6.000;2023-08-06T08:29:50;100636.59;;;19.46;100.00
10806;BME280;5455;53.224;6.000;2023-08-06T08:32:18;100635.44;;;19.66;100.00
10806;BME280;5455;53.224;6.000;2023-08-06T08:34:45;100639.81;;;19.91;100.00
10806;BME280;5455;53.224;6.000;2023-08-06T08:37:13;100636.91;;;19.98;100.00
10806;BME280;5455;53.224;6.000;2023-08-06T08:39:40;100643.38;;;20.14;100.00
10806;BME280;5455;53.224;6.000;2023-08-06T08:42:08;100642.72;;;19.84;100.00
10806;BME280;5455;53.224;6.000;2023-08-06T08:44:36;100647.97;;;19.82;100.00
10806;BME280;5455;53.224;6.000;2023-08-06T08:47:10;100639.59;;;19.82;100.00
10806;BME280;5455;53.224;6.000;2023-08-06T08:49:38;100649.59;;;20.22;100.00
10806;BME280;5455;53.224;6.000;2023-08-06T08:52:05;100649.06;;;20.50;100.00
10806;BME280;5455;53.224;6.000;2023-08-06T08:54:34;100644.34;;;20.47;100.00
10806;BME280;5455;53.224;6.000;2023-08-06T08:57:01;100651.66;;;20.41;100.00
10806;BME280;5455;53.224;6.000;2023-08-06T08:59:29;100648.09;;;20.17;100.00
10806;BME280;5455;53.224;6.000;2023-08-06T09:01:56;100655.69;;;20.40;100.00
10806;BME280;5455;53.224;6.000;2023-08-06T09:04:24;100651.16;;;20.66;100.00
10806;BME280;5455;53.224;6.000;2023-08-06T09:06:54;100647.63;;;20.98;100.00
10806;BME280;5455;53.224;6.000;2023-08-06T09:09:31;100657.09;;;21.23;100.00
10806;BME280;5455;53.224;6.000;2023-08-06T09:12:01;100656.53;;;21.12;100.00
10806;BME280;5455;53.224;6.000;2023-08-06T09:14:30;100657.38;;;21.29;100.00
10806;BME280;5455;53.224;6.000;2023-08-06T09:16:57;100656.31;;;21.39;100.00
10806;BME280;5455;53.224;6.000;2023-08-06T09:19:26;100662.09;;;21.32;100.00
10806;BME280;5455;53.224;6.000;2023-08-06T09:21:55;100663.88;;;21.74;100.00
10806;BME280;5455;53.224;6.000;2023-08-06T09:24:22;100668.75;;;21.70;100.00
10806;BME280;5455;53.224;6.000;2023-08-06T09:26:50;100675.25;;;21.67;100.00
10806;BME280;5455;53.224;6.000;2023-08-06T09:29:17;100677.47;;;21.60;100.00
10806;BME280;5455;53.224;6.000;2023-08-06T09:34:17;100671.75;;;21.95;100.00
10806;BME280;5455;53.224;6.000;2023-08-06T09:36:47;100672.84;;;22.14;100.00
10806;BME280;5455;53.224;6.000;2023-08-06T09:39:19;100675.34;;;22.41;100.00
10806;BME280;5455;53.224;6.000;2023-08-06T09:41:48;100679.63;;;22.17;100.00
10806;BME280;5455;53.224;6.000;2023-08-06T09:44:21;100685.78;;;22.40;100.00
10806;BME280;5455;53.224;6.000;2023-08-06T09:46:55;100691.41;;;22.40;100.00
10806;BME280;5455;53.224;6.000;2023-08-06T09:49:26;100684.03;;;21.85;100.00
10806;BME280;5455;53.224;6.000;2023-08-06T09:51:54;100683.50;;;21.58;100.00
10806;BME280;5455;53.224;6.000;2023-08-06T09:54:27;100681.91;;;21.73;100.00
10806;BME280;5455;53.224;6.000;2023-08-06T09:56:54;100688.66;;;21.76;100.00
10806;BME280;5455;53.224;6.000;2023-08-06T09:59:25;100699.00;;;22.11;100.00
10806;BME280;5455;53.224;6.000;2023-08-06T10:01:54;100696.41;;;22.33;100.00
10806;BME280;5455;53.224;6.000;2023-08-06T10:04:23;100693.81;;;22.26;100.00
10806;BME280;5455;53.224;6.000;2023-08-06T10:06:56;100692.16;;;22.12;100.00
10806;BME280;5455;53.224;6.000;2023-08-06T10:09:24;100699.38;;;21.97;100.00
10806;BME280;5455;53.224;6.000;2023-08-06T10:11:51;100696.00;;;21.89;100.00
10806;BME280;5455;53.224;6.000;2023-08-06T10:14:28;100700.06;;;21.85;100.00
10806;BME280;5455;53.224;6.000;2023-08-06T10:16:58;100690.72;;;21.91;99.59
10806;BME280;5455;53.224;6.000;2023-08-06T10:19:27;100691.50;;;21.92;97.81
10806;BME280;5455;53.224;6.000;2023-08-06T10:22:14;100696.03;;;21.86;97.89
10806;BME280;5455;53.224;6.000;2023-08-06T10:24:46;100694.03;;;21.86;100.00
10806;BME280;5455;53.224;6.000;2023-08-06T10:27:13;100695.53;;;21.75;100.00
10806;BME280;5455;53.224;6.000;2023-08-06T10:29:40;100690.78;;;22.04;100.00
10806;BME280;5455;53.224;6.000;2023-08-06T10:32:07;100685.69;;;21.83;100.00
10806;BME280;5455;53.224;6.000;2023-08-06T10:34:54;100684.38;;;21.55;100.00
10806;BME280;5455;53.224;6.000;2023-08-06T10:37:37;100696.97;;;21.31;100.00
10806;BME280;5455;53.224;6.000;2023-08-06T10:40:06;100687.16;;;21.23;100.00
10806;BME280;5455;53.224;6.000;2023-08-06T10:42:34;100705.00;;;21.13;100.00
10806;BME280;5455;53.224;6.000;2023-08-06T10:45:15;100698.47;;;21.00;100.00
10806;BME280;5455;53.224;6.000;2023-08-06T10:47:44;100697.50;;;21.06;100.00
10806;BME280;5455;53.224;6.000;2023-08-06T10:50:14;100692.94;;;20.96;100.00
10806;BME280;5455;53.224;6.000;2023-08-06T10:52:46;100686.75;;;20.85;100.00
10806;BME280;5455;53.224;6.000;2023-08-06T10:55:22;100697.31;;;20.97;100.00
10806;BME280;5455;53.224;6.000;2023-08-06T10:57:50;100696.56;;;20.77;100.00
10806;BME280;5455;53.224;6.000;2023-08-06T11:00:17;100697.06;;;20.72;100.00
10806;BME280;5455;53.224;6.000;2023-08-06T11:02:46;100698.28;;;20.71;100.00
10806;BME280;5455;53.224;6.000;2023-08-06T11:05:14;100705.03;;;20.54;100.00
10806;BME280;5455;53.224;6.000;2023-08-06T11:07:41;100696.78;;;20.66;100.00
10806;BME280;5455;53.224;6.000;2023-08-06T11:10:12;100703.78;;;20.94;100.00
10806;BME280;5455;53.224;6.000;2023-08-06T11:12:39;100700.56;;;20.76;100.00
10806;BME280;5455;53.224;6.000;2023-08-06T11:15:07;100712.34;;;20.87;100.00
10806;BME280;5455;53.224;6.000;2023-08-06T11:17:34;100699.69;;;20.79;100.00
10806;BME280;5455;53.224;6.000;2023-08-06T11:20:03;100703.75;;;20.78;100.00
10806;BME280;5455;53.224;6.000;2023-08-06T11:22:31;100701.41;;;21.12;100.00
10806;BME280;5455;53.224;6.000;2023-08-06T11:24:59;100699.25;;;21.36;100.00
10806;BME280;5455;53.224;6.000;2023-08-06T11:27:28;100693.13;;;21.25;100.00
10806;BME280;5455;53.224;6.000;2023-08-06T11:29:55;100695.09;;;21.92;100.00
10806;BME280;5455;53.224;6.000;2023-08-06T11:32:22;100712.63;;;22.13;100.00
10806;BME280;5455;53.224;6.000;2023-08-06T11:34:49;100709.94;;;21.93;100.00
10806;BME280;5455;53.224;6.000;2023-08-06T11:37:21;100701.13;;;22.07;100.00
10806;BME280;5455;53.224;6.000;2023-08-06T11:39:48;100707.22;;;22.34;100.00
10806;BME280;5455;53.224;6.000;2023-08-06T11:42:16;100706.91;;;22.16;100.00
10806;BME280;5455;53.224;6.000;2023-08-06T11:44:43;100704.91;;;22.45;98.86
10806;BME280;5455;53.224;6.000;2023-08-06T11:47:15;100709.41;;;22.43;94.30
10806;BME280;5455;53.224;6.000;2023-08-06T11:49:43;100701.72;;;22.15;91.03
10806;BME280;5455;53.224;6.000;2023-08-06T11:52:20;100706.03;;;22.19;93.04
10806;BME280;5455;53.224;6.000;2023-08-06T11:55:09;100704.34;;;22.22;93.92
10806;BME280;5455;53.224;6.000;2023-08-06T11:57:39;100706.19;;;22.57;95.00
10806;BME280;5455;53.224;6.000;2023-08-06T12:00:10;100702.41;;;22.35;93.60
10806;BME280;5455;53.224;6.000;2023-08-06T12:02:45;100709.94;;;21.93;95.48
10806;BME280;5455;53.224;6.000;2023-08-06T12:05:14;100700.59;;;21.48;96.27
10806;BME280;5455;53.224;6.000;2023-08-06T12:07:43;100710.88;;;21.18;97.12
10806;BME280;5455;53.224;6.000;2023-08-06T12:10:12;100703.28;;;21.19;99.40
10806;BME280;5455;53.224;6.000;2023-08-06T12:12:39;100707.59;;;21.23;100.00
10806;BME280;5455;53.224;6.000;2023-08-06T12:15:08;100709.16;;;21.05;100.00
10806;BME280;5455;53.224;6.000;2023-08-06T12:17:36;100710.50;;;20.80;100.00
10806;BME280;5455;53.224;6.000;2023-08-06T12:20:04;100702.94;;;20.77;100.00
10806;BME280;5455;53.224;6.000;2023-08-06T12:22:33;100705.56;;;21.04;100.00
10806;BME280;5455;53.224;6.000;2023-08-06T12:25:06;100709.31;;;20.98;100.00
10806;BME280;5455;53.224;6.000;2023-08-06T12:27:35;100709.25;;;21.01;100.00
10806;BME280;5455;53.224;6.000;2023-08-06T12:30:03;100710.63;;;21.13;100.00
10806;BME280;5455;53.224;6.000;2023-08-06T12:32:31;100707.41;;;21.14;100.00
10806;BME280;5455;53.224;6.000;2023-08-06T12:34:58;100714.13;;;20.97;100.00
10806;BME280;5455;53.224;6.000;2023-08-06T12:37:25;100711.41;;;21.13;100.00
10806;BME280;5455;53.224;6.000;2023-08-06T12:39:53;100720.72;;;21.07;98.96
10806;BME280;5455;53.224;6.000;2023-08-06T12:42:20;100722.91;;;21.19;100.00
10806;BME280;5455;53.224;6.000;2023-08-06T12:44:51;100721.38;;;21.50;97.38
10806;BME280;5455;53.224;6.000;2023-08-06T12:47:18;100727.47;;;21.81;98.37
10806;BME280;5455;53.224;6.000;2023-08-06T12:49:46;100717.03;;;21.98;95.42
10806;BME280;5455;53.224;6.000;2023-08-06T12:52:13;100716.22;;;21.97;94.44
10806;BME280;5455;53.224;6.000;2023-08-06T12:54:42;100722.28;;;21.79;90.27
10806;BME280;5455;53.224;6.000;2023-08-06T12:57:09;100726.81;;;21.57;91.09
10806;BME280;5455;53.224;6.000;2023-08-06T12:59:36;100721.75;;;21.68;92.23
10806;BME280;5455;53.224;6.000;2023-08-06T13:02:04;100725.28;;;21.88;91.66
10806;BME280;5455;53.224;6.000;2023-08-06T13:04:31;100730.59;;;21.83;90.01